Terminal Aerodrome Forecast
Issued by NWS

Home | Current Version | Previous Version | Text Only | Print | Product List | Glossary On
Versions: 1 2 3 4 5 6 7 8 9 10 11 12 13 14 15 16 17 18 19 20 21 22 23 24 25 26
000
FTUS42 TJSJ 221140
TAFISX
TAF
TISX 221140Z 2212/2312 06014G20KT P6SM VCSH FEW030 SCT050
      TEMPO 2212/2214 5SM SHRA BKN030 BKN070
     FM221400 09014G24KT P6SM FEW030
     FM222300 VRB05KT P6SM FEW025=

USA.gov is the U.S. government's official web portal to all federal, state and local government web resources and services.